Time;durP1;ratioP1;P1;durP2;ratioP2;P2;SDS_P1;SDS_P2;PMS_P1;PMS_P2;Temp;Humidity;BMP_temperature;BMP_pressure;BME280_temperature;BME280_humidity;BME280_pressure;Samples;Min_cycle;Max_cycle;Signal;HPM_P1;HPM_P2
2022/08/19 00:01:44;;;;;;;14.70;12.50;;;;;;;20.02;78.59;98463.50;5068460;28;20020;-80
2022/08/19 00:04:14;;;;;;;20.63;15.60;;;;;;;19.73;81.90;98466.03;5057102;28;20032;-79
2022/08/19 00:06:42;;;;;;;26.75;18.77;;;;;;;19.51;84.22;98479.69;5055070;28;20040;-80
2022/08/19 00:09:10;;;;;;;14.18;12.50;;;;;;;19.66;79.86;98450.25;5058695;28;20396;-81
2022/08/19 00:11:37;;;;;;;19.42;16.27;;;;;;;19.98;80.61;98451.72;5058313;28;20036;-80
2022/08/19 00:14:04;;;;;;;18.35;14.48;;;;;;;20.35;77.37;98461.94;5060753;28;20378;-80
2022/08/19 00:16:29;;;;;;;21.92;14.77;;;;;;;20.31;77.95;98452.84;5059524;28;20047;-79
2022/08/19 00:18:56;;;;;;;14.95;11.00;;;;;;;20.30;76.38;98432.28;5050394;28;20036;-80
2022/08/19 00:21:26;;;;;;;14.30;10.73;;;;;;;20.32;75.31;98430.03;5054871;28;20436;-80
2022/08/19 00:23:53;;;;;;;11.93;10.63;;;;;;;20.84;72.77;98447.75;5064432;28;20027;-80
2022/08/19 00:26:18;;;;;;;11.50;9.75;;;;;;;20.78;72.99;98432.78;5063103;28;20089;-80
2022/08/19 00:28:43;;;;;;;13.65;12.23;;;;;;;20.50;75.59;98437.03;5062197;28;20423;-80
2022/08/19 00:31:09;;;;;;;14.02;12.52;;;;;;;19.98;78.53;98451.72;5059949;28;20481;-80
2022/08/19 00:33:36;;;;;;;21.08;13.38;;;;;;;20.04;79.62;98455.84;5068498;28;20395;-80
2022/08/19 00:36:06;;;;;;;15.18;11.85;;;;;;;19.85;79.10;98434.53;5063172;28;20056;-80
2022/08/19 00:38:33;;;;;;;16.25;14.35;;;;;;;19.75;80.72;98442.94;5059328;28;20094;-80
2022/08/19 00:40:59;;;;;;;19.95;14.50;;;;;;;19.61;81.00;98433.38;5048675;28;20394;-80
2022/08/19 00:43:26;;;;;;;15.70;13.95;;;;;;;19.70;80.77;98450.44;5059340;28;20032;-80
2022/08/19 00:45:53;;;;;;;14.68;11.57;;;;;;;19.64;79.71;98435.44;5039176;28;20369;-80
2022/08/19 00:48:20;;;;;;;17.77;11.07;;;;;;;19.90;79.45;98449.78;5063451;28;20090;-80
2022/08/19 00:50:48;;;;;;;16.98;11.98;;;;;;;19.61;81.15;98445.00;5051055;28;20028;-80
2022/08/19 00:53:17;;;;;;;10.13;8.85;;;;;;;19.91;77.48;98449.50;5049531;28;20459;-80
2022/08/19 00:55:47;;;;;;;11.77;8.85;;;;;;;19.92;78.51;98445.66;5061274;28;20032;-80
2022/08/19 00:58:19;;;;;;;17.63;14.35;;;;;;;19.71;80.91;98441.19;5064869;28;20032;-80
2022/08/19 01:00:46;;;;;;;17.48;13.90;;;;;;;19.55;81.10;98430.00;5060291;28;20480;-80
2022/08/19 01:03:16;;;;;;;20.38;15.15;;;;;;;19.65;81.27;98445.16;5062050;28;20493;-80
2022/08/19 01:05:44;;;;;;;11.80;9.85;;;;;;;19.65;79.41;98435.13;5058713;28;20031;-80
2022/08/19 01:08:10;;;;;;;17.73;14.13;;;;;;;19.44;82.18;98443.06;5039340;28;20082;-79
2022/08/19 01:10:45;;;;;;;20.73;14.38;;;;;;;19.46;81.88;98436.56;5056450;28;20385;-80
2022/08/19 01:13:11;;;;;;;20.95;13.93;;;;;;;19.32;82.80;98413.09;5058222;28;20033;-80
2022/08/19 01:15:44;;;;;;;22.50;11.20;;;;;;;19.54;79.81;98414.91;5061888;28;20047;-80
2022/08/19 01:18:13;;;;;;;18.75;14.23;;;;;;;19.39;82.68;98439.72;5063784;28;20021;-79
2022/08/19 01:20:39;;;;;;;18.40;15.02;;;;;;;19.31;82.42;98416.88;5058474;28;20028;-79
2022/08/19 01:23:05;;;;;;;16.60;14.35;;;;;;;19.33;82.64;98420.06;5067867;28;20020;-80
2022/08/19 01:25:52;;;;;;;13.32;11.02;;;;;;;19.41;81.57;98422.06;5048562;28;20120;-80
2022/08/19 01:28:21;;;;;;;22.40;14.00;;;;;;;19.52;81.02;98424.44;5063941;28;20484;-80
2022/08/19 01:30:46;;;;;;;15.98;11.23;;;;;;;19.38;81.14;98421.88;5063172;28;20021;-80
2022/08/19 01:33:12;;;;;;;17.90;14.77;;;;;;;19.25;81.65;98407.34;5051593;28;20496;-80
2022/08/19 01:35:38;;;;;;;14.75;10.88;;;;;;;19.19;81.78;98419.44;5059079;28;20037;-80
2022/08/19 01:38:07;;;;;;;16.15;13.10;;;;;;;19.74;79.05;98435.16;5049874;28;20035;-80
2022/08/19 01:40:35;;;;;;;15.68;12.10;;;;;;;19.76;78.38;98414.75;5062533;28;20040;-80
2022/08/19 01:43:01;;;;;;;14.55;11.38;;;;;;;19.61;79.30;98420.66;5048733;28;20025;-80
2022/08/19 01:45:28;;;;;;;14.88;13.32;;;;;;;19.47;80.37;98428.09;5058226;28;20521;-81
2022/08/19 01:47:55;;;;;;;21.33;13.60;;;;;;;19.43;80.59;98427.94;5046729;28;20342;-79
2022/08/19 01:50:21;;;;;;;13.88;11.80;;;;;;;19.22;80.72;98435.00;5056316;28;20020;-79
2022/08/19 01:52:47;;;;;;;16.10;11.30;;;;;;;19.17;81.08;98426.25;5059183;28;20044;-80
2022/08/19 01:55:23;;;;;;;20.35;12.02;;;;;;;19.36;79.10;98424.91;5062802;28;20060;-79
2022/08/19 01:57:55;;;;;;;13.52;9.68;;;;;;;19.17;79.58;98410.03;5062599;28;20063;-80
2022/08/19 02:00:24;;;;;;;13.13;9.73;;;;;;;19.07;80.21;98418.41;5060459;28;20499;-80
2022/08/19 02:02:49;;;;;;;13.90;10.75;;;;;;;18.96;80.64;98411.72;5060109;28;20043;-80
2022/08/19 02:05:16;;;;;;;13.57;9.38;;;;;;;19.37;78.12;98417.59;5058300;28;20033;-80
2022/08/19 02:07:41;;;;;;;9.38;8.27;;;;;;;19.28;78.89;98422.94;5063952;28;20028;-80
2022/08/19 02:10:12;;;;;;;10.48;9.43;;;;;;;19.52;78.06;98421.75;5041915;28;20033;-80
2022/08/19 02:12:37;;;;;;;15.93;9.88;;;;;;;19.38;78.58;98432.69;5060132;28;20020;-80
2022/08/19 02:15:03;;;;;;;15.30;10.20;;;;;;;19.29;79.11;98424.53;5043340;28;20039;-79
2022/08/19 02:17:29;;;;;;;11.35;8.60;;;;;;;19.34;79.12;98424.41;5042402;28;20048;-79
2022/08/19 02:19:56;;;;;;;16.63;9.75;;;;;;;19.13;79.63;98420.66;5059604;28;20388;-79
2022/08/19 02:22:23;;;;;;;14.25;10.27;;;;;;;18.77;80.74;98408.44;5059665;28;20028;-79
2022/08/19 02:24:48;;;;;;;12.43;10.32;;;;;;;18.77;80.98;98406.53;5062733;28;20024;-80
2022/08/19 02:27:15;;;;;;;11.60;9.30;;;;;;;18.99;79.68;98425.41;5065747;28;20456;-80
2022/08/19 02:29:40;;;;;;;15.00;9.73;;;;;;;19.04;80.10;98409.03;5061155;28;20017;-80
2022/08/19 02:32:07;;;;;;;9.27;7.80;;;;;;;19.10;79.27;98402.38;5063392;28;20480;-79
2022/08/19 02:34:33;;;;;;;9.48;8.65;;;;;;;19.07;79.76;98415.72;5046982;28;20041;-79
2022/08/19 02:36:59;;;;;;;13.52;9.63;;;;;;;18.81;81.10;98396.69;5067690;28;20058;-80
2022/08/19 02:39:24;;;;;;;10.43;9.32;;;;;;;19.21;79.74;98400.97;5048760;28;20113;-80
2022/08/19 02:41:51;;;;;;;12.65;8.38;;;;;;;19.42;78.36;98412.81;5058213;28;20027;-80
2022/08/19 02:44:17;;;;;;;15.20;10.07;;;;;;;19.15;79.72;98402.22;5061388;28;20055;-79
2022/08/19 02:46:46;;;;;;;7.85;6.53;;;;;;;19.71;76.24;98422.22;5060462;28;20043;-79
2022/08/19 02:49:12;;;;;;;9.35;7.50;;;;;;;19.68;75.79;98403.94;5068986;28;20044;-80
2022/08/19 02:51:40;;;;;;;6.93;6.22;;;;;;;19.72;75.63;98404.88;5059344;28;20032;-79
2022/08/19 02:54:08;;;;;;;9.95;6.60;;;;;;;20.01;74.27;98397.69;5064754;28;20040;-80
2022/08/19 02:56:37;;;;;;;11.85;7.57;;;;;;;20.00;74.92;98431.31;5052210;28;20021;-80
2022/08/19 02:59:08;;;;;;;11.93;9.23;;;;;;;19.88;76.03;98412.19;5059092;28;20039;-80
2022/08/19 03:01:34;;;;;;;13.77;9.80;;;;;;;19.32;78.68;98404.97;5058683;28;20025;-79
2022/08/19 03:04:03;;;;;;;14.75;10.30;;;;;;;18.98;80.66;98394.03;5061800;28;20516;-80
2022/08/19 03:06:30;;;;;;;18.30;10.25;;;;;;;18.86;81.13;98393.84;5030121;28;20110;-79
2022/08/19 03:08:56;;;;;;;12.65;9.50;;;;;;;19.20;79.95;98418.28;5073468;28;20083;-80
2022/08/19 03:11:30;;;;;;;16.02;10.07;;;;;;;19.34;79.28;98418.19;5054038;28;20032;-79
2022/08/19 03:13:58;;;;;;;12.50;9.07;;;;;;;19.51;77.70;98436.38;5044063;28;20037;-80
2022/08/19 03:16:27;;;;;;;7.75;6.95;;;;;;;19.75;75.75;98426.69;5067956;28;20044;-80
2022/08/19 03:18:53;;;;;;;7.93;7.20;;;;;;;19.69;77.25;98432.59;5070070;28;20040;-79
2022/08/19 03:21:23;;;;;;;11.80;7.70;;;;;;;20.18;73.71;98434.81;5061043;28;20029;-79
2022/08/19 03:23:49;;;;;;;14.13;6.70;;;;;;;20.25;73.43;98443.28;5070427;28;20060;-80
2022/08/19 03:26:15;;;;;;;10.70;8.95;;;;;;;20.10;74.50;98427.47;5063350;28;20036;-80
2022/08/19 03:28:42;;;;;;;7.38;6.55;;;;;;;20.27;72.97;98432.91;5049045;28;20465;-79
2022/08/19 03:31:11;;;;;;;8.75;6.20;;;;;;;20.37;72.67;98437.19;5063172;28;20120;-79
2022/08/19 03:33:37;;;;;;;13.10;7.65;;;;;;;20.20;73.20;98432.59;5064722;28;20455;-80
2022/08/19 03:36:12;;;;;;;10.27;6.57;;;;;;;20.22;73.75;98443.13;5063176;28;20254;-80
2022/08/19 03:38:41;;;;;;;7.77;6.30;;;;;;;19.99;73.68;98437.84;5066122;28;20028;-79
2022/08/19 03:41:10;;;;;;;9.18;6.20;;;;;;;19.43;74.65;98437.97;5063099;28;20027;-80
2022/08/19 03:43:38;;;;;;;9.10;6.60;;;;;;;19.80;74.21;98463.66;5047964;28;20114;-80
2022/08/19 03:46:07;;;;;;;9.10;7.00;;;;;;;20.21;72.48;98461.28;5064098;28;20119;-79
2022/08/19 03:48:33;;;;;;;9.52;6.13;;;;;;;19.90;73.69;98456.00;5063995;28;20043;-80
2022/08/19 03:51:02;;;;;;;8.48;5.60;;;;;;;20.10;72.50;98454.56;5062248;28;20042;-80
2022/08/19 03:53:29;;;;;;;6.18;5.30;;;;;;;20.22;72.22;98457.47;5060975;28;20396;-80
2022/08/19 03:55:56;;;;;;;6.88;5.68;;;;;;;20.16;72.45;98443.25;5069153;28;20056;-80
2022/08/19 03:58:22;;;;;;;7.13;5.50;;;;;;;20.29;72.29;98455.06;5063399;28;20496;-79
2022/08/19 04:00:48;;;;;;;7.72;6.00;;;;;;;19.64;74.30;98457.09;5059158;28;20392;-80
2022/08/19 04:03:14;;;;;;;8.23;5.65;;;;;;;20.00;73.10;98457.63;5069662;28;20039;-80
2022/08/19 04:05:39;;;;;;;6.35;5.75;;;;;;;20.16;72.08;98439.75;5066421;28;20040;-79
2022/08/19 04:08:05;;;;;;;9.73;6.18;;;;;;;19.90;72.90;98447.09;5049746;28;20119;-79
2022/08/19 04:10:35;;;;;;;6.50;4.93;;;;;;;20.25;71.59;98445.22;5030791;28;20162;-79
2022/08/19 04:13:00;;;;;;;10.02;5.88;;;;;;;20.32;71.44;98445.50;5056724;28;20062;-80
2022/08/19 04:15:28;;;;;;;5.97;5.40;;;;;;;20.14;72.07;98452.81;5063804;28;20166;-80
2022/08/19 04:17:54;;;;;;;6.55;5.55;;;;;;;20.12;71.78;98433.38;5063297;28;20090;-80
2022/08/19 04:20:19;;;;;;;8.32;5.72;;;;;;;19.88;72.25;98439.28;5032227;28;20151;-80
2022/08/19 04:22:45;;;;;;;5.47;4.97;;;;;;;19.73;72.55;98447.88;5057194;28;20024;-80
2022/08/19 04:25:10;;;;;;;7.18;5.32;;;;;;;19.56;72.63;98456.00;5059681;28;20040;-80
2022/08/19 04:27:36;;;;;;;7.70;5.43;;;;;;;19.56;72.93;98445.16;5065714;28;20028;-80
2022/08/19 04:30:02;;;;;;;10.43;5.70;;;;;;;19.44;72.05;98447.66;5061441;28;20036;-80
2022/08/19 04:32:27;;;;;;;5.80;5.30;;;;;;;20.05;71.65;98452.06;5054939;28;20527;-80
2022/08/19 04:34:56;;;;;;;5.30;4.53;;;;;;;19.66;71.08;98454.91;5057459;28;20226;-80
2022/08/19 04:37:21;;;;;;;5.53;4.78;;;;;;;19.35;71.92;98439.53;5063253;28;20032;-80
2022/08/19 04:42:40;;;;;;;5.30;4.80;;;;;;;19.73;70.92;98445.16;5059718;28;20043;-80
2022/08/19 04:45:09;;;;;;;5.53;5.03;;;;;;;19.33;72.09;98447.16;5059819;28;20131;-80
2022/08/19 04:47:36;;;;;;;11.80;4.47;;;;;;;19.86;71.80;98424.47;5042154;28;20366;-80
2022/08/19 04:50:02;;;;;;;6.78;4.60;;;;;;;20.10;70.71;98433.69;5053955;28;20029;-80
2022/08/19 04:52:28;;;;;;;6.53;4.72;;;;;;;19.78;71.00;98447.75;5051736;28;20060;-80
2022/08/19 04:54:55;;;;;;;4.75;4.35;;;;;;;20.02;71.10;98439.13;5037669;28;20489;-79
2022/08/19 04:57:21;;;;;;;6.15;4.32;;;;;;;20.21;70.47;98436.91;5063874;28;20021;-80
2022/08/19 04:59:46;;;;;;;5.80;4.13;;;;;;;20.38;69.67;98439.59;5060401;28;20103;-79
2022/08/19 05:02:11;;;;;;;5.03;4.53;;;;;;;20.36;69.49;98444.53;5050994;28;20029;-80
2022/08/19 05:04:38;;;;;;;5.65;4.53;;;;;;;20.28;69.40;98444.53;5036633;28;20032;-80
2022/08/19 05:07:05;;;;;;;4.72;3.83;;;;;;;20.43;69.31;98458.41;5063911;28;20036;-80
2022/08/19 05:09:31;;;;;;;6.60;3.58;;;;;;;20.51;69.14;98463.00;5049929;28;20028;-80
2022/08/19 05:11:56;;;;;;;4.13;3.17;;;;;;;20.57;69.09;98474.50;5049958;28;20082;-80
2022/08/19 05:14:22;;;;;;;5.40;4.07;;;;;;;20.54;69.04;98456.94;5056891;28;20064;-80
2022/08/19 05:16:48;;;;;;;3.40;3.20;;;;;;;20.54;68.71;98459.66;5058772;28;20039;-80
2022/08/19 05:24:43;;;;;;;5.47;4.32;;;;;;;20.40;69.62;98488.09;5059869;28;20089;-80
2022/08/19 05:27:09;;;;;;;5.18;4.13;;;;;;;20.48;69.22;98471.81;5059792;28;20467;-80
2022/08/19 05:29:34;;;;;;;5.00;4.50;;;;;;;20.50;69.11;98466.03;5062532;28;20024;-80
2022/08/19 05:32:04;;;;;;;5.15;4.05;;;;;;;20.50;69.67;98471.47;5052633;28;20111;-80
2022/08/19 05:34:30;;;;;;;4.95;4.45;;;;;;;20.50;69.63;98463.34;5061391;28;20112;-80
2022/08/19 05:36:58;;;;;;;5.88;4.63;;;;;;;20.48;69.11;98452.00;5063195;28;20095;-80
2022/08/19 05:39:29;;;;;;;6.13;4.25;;;;;;;20.38;69.58;98441.53;5061577;28;20041;-80
2022/08/19 05:41:58;;;;;;;5.15;4.30;;;;;;;20.55;69.10;98450.38;5047288;28;20051;-80
2022/08/19 05:44:31;;;;;;;8.05;5.47;;;;;;;20.47;70.96;98456.63;5065348;28;20475;-80
2022/08/19 05:47:02;;;;;;;6.32;4.00;;;;;;;20.61;69.42;98465.38;5053287;28;20025;-80
2022/08/19 05:49:28;;;;;;;5.35;4.35;;;;;;;20.63;69.09;98459.63;5058309;28;20024;-80
2022/08/19 05:51:55;;;;;;;4.70;4.28;;;;;;;20.56;69.25;98452.00;5062827;28;20063;-80
2022/08/19 05:54:22;;;;;;;4.97;4.28;;;;;;;20.53;69.15;98433.66;5057699;28;20032;-79
2022/08/19 05:56:49;;;;;;;5.38;4.18;;;;;;;20.69;69.09;98456.44;5056755;28;20070;-80
2022/08/19 05:59:17;;;;;;;6.88;4.38;;;;;;;20.63;68.72;98459.63;5060714;28;20029;-79
2022/08/19 06:01:45;;;;;;;6.40;4.03;;;;;;;20.29;69.45;98433.38;5039945;28;20526;-80
2022/08/19 06:04:13;;;;;;;4.90;4.18;;;;;;;20.48;69.08;98460.16;5056135;28;20025;-80
2022/08/19 06:06:39;;;;;;;5.13;4.25;;;;;;;20.59;68.94;98458.69;5054455;28;20048;-79
2022/08/19 06:09:06;;;;;;;5.45;4.10;;;;;;;20.47;69.34;98456.63;5048842;28;20083;-79
2022/08/19 06:11:34;;;;;;;4.55;4.15;;;;;;;20.70;68.84;98468.09;5057870;28;20104;-80
2022/08/19 06:14:21;;;;;;;4.70;4.15;;;;;;;20.75;68.66;98473.34;5060901;28;20028;-80
2022/08/19 06:16:46;;;;;;;4.13;3.72;;;;;;;20.77;68.24;98469.16;5059718;28;20040;-80
2022/08/19 06:19:17;;;;;;;5.85;5.30;;;;;;;20.67;69.62;98458.66;5058762;28;20035;-79
2022/08/19 06:21:44;;;;;;;5.43;4.90;;;;;;;20.37;69.65;98467.03;5046593;28;20044;-79
2022/08/19 06:24:12;;;;;;;5.65;4.88;;;;;;;20.53;69.58;98474.31;5058388;28;20016;-80
2022/08/19 06:26:41;;;;;;;6.57;4.65;;;;;;;20.71;68.49;98464.22;5061115;28;20063;-79
2022/08/19 06:29:08;;;;;;;4.15;3.75;;;;;;;20.52;69.47;98480.88;5061883;28;20468;-79
2022/08/19 06:31:36;;;;;;;4.95;4.47;;;;;;;20.76;68.59;98483.84;5063180;28;20389;-79
2022/08/19 06:34:04;;;;;;;4.53;4.03;;;;;;;20.93;67.68;98478.38;5064883;28;20024;-80
2022/08/19 06:36:35;;;;;;;5.05;4.07;;;;;;;20.64;68.71;98474.81;5064031;28;20032;-80
2022/08/19 06:39:07;;;;;;;4.65;4.05;;;;;;;20.60;69.01;98485.47;5060016;28;20052;-80
2022/08/19 06:41:36;;;;;;;6.72;5.65;;;;;;;20.32;70.41;98486.16;5062588;28;20024;-80
2022/08/19 06:44:02;;;;;;;7.00;5.68;;;;;;;20.09;70.42;98480.88;5066420;28;20508;-80
2022/08/19 06:46:28;;;;;;;6.53;4.80;;;;;;;20.55;69.14;98482.94;5063291;28;20039;-80
2022/08/19 06:48:54;;;;;;;4.03;3.67;;;;;;;20.61;68.68;98489.00;5049958;28;20116;-80
2022/08/19 06:51:20;;;;;;;5.15;4.68;;;;;;;20.80;68.14;98502.97;5063635;28;20029;-80
2022/08/19 06:53:48;;;;;;;5.07;4.57;;;;;;;20.70;68.82;98517.72;5060372;28;20025;-80
2022/08/19 06:56:15;;;;;;;5.95;5.28;;;;;;;20.67;69.14;98512.91;5061547;28;20476;-80
2022/08/19 06:58:40;;;;;;;4.40;4.00;;;;;;;20.53;69.34;98501.44;5064340;28;20036;-80
2022/08/19 07:01:06;;;;;;;7.22;5.22;;;;;;;20.73;70.09;98525.19;5058026;28;20400;-80
2022/08/19 07:03:35;;;;;;;7.13;5.60;;;;;;;20.13;71.43;98517.09;5064462;28;20393;-80
2022/08/19 07:06:10;;;;;;;4.70;4.28;;;;;;;20.41;69.57;98531.13;5042756;28;20555;-80
2022/08/19 07:08:37;;;;;;;6.25;4.70;;;;;;;20.16;71.29;98545.44;5062916;28;20060;-80
2022/08/19 07:11:07;;;;;;;6.28;4.95;;;;;;;20.63;69.53;98536.38;5064496;28;20068;-80
2022/08/19 07:13:36;;;;;;;4.28;3.97;;;;;;;20.97;67.53;98543.63;5052654;28;20052;-81
2022/08/19 07:16:06;;;;;;;4.20;3.80;;;;;;;20.99;68.04;98554.97;5059151;28;20024;-80
2022/08/19 07:18:32;;;;;;;7.50;4.72;;;;;;;21.03;68.01;98564.09;5048847;28;20032;-80
2022/08/19 07:21:05;;;;;;;5.97;5.35;;;;;;;20.37;69.74;98543.75;5055485;28;20028;-80
2022/08/19 07:23:31;;;;;;;4.47;4.03;;;;;;;20.95;68.03;98548.59;5056300;28;20031;-80
2022/08/19 07:25:56;;;;;;;5.70;4.70;;;;;;;20.77;68.92;98553.25;5063902;28;20107;-80
2022/08/19 07:28:22;;;;;;;7.13;4.78;;;;;;;20.34;69.83;98538.13;5063275;28;20112;-80
2022/08/19 07:30:48;;;;;;;5.78;4.22;;;;;;;20.67;68.93;98556.31;5042729;28;20052;-80
2022/08/19 07:33:13;;;;;;;6.35;4.95;;;;;;;21.13;67.73;98563.75;5066297;28;20058;-80
2022/08/19 07:35:39;;;;;;;9.18;5.38;;;;;;;21.02;68.43;98573.31;5052563;28;20056;-80
2022/08/19 07:38:04;;;;;;;8.82;5.10;;;;;;;21.18;68.50;98576.34;5045565;28;20480;-80
2022/08/19 07:40:30;;;;;;;7.68;5.38;;;;;;;20.99;69.15;98579.38;5058990;28;20031;-80
2022/08/19 07:42:55;;;;;;;6.85;4.30;;;;;;;21.14;67.91;98564.56;5062126;28;20033;-80
2022/08/19 07:45:21;;;;;;;7.53;5.22;;;;;;;20.11;70.16;98575.41;5048542;28;20124;-79
2022/08/19 07:47:46;;;;;;;7.68;5.40;;;;;;;20.07;70.73;98574.47;5061735;28;20476;-79
2022/08/19 07:50:12;;;;;;;6.10;5.15;;;;;;;20.06;70.38;98583.69;5033076;28;20040;-80
2022/08/19 07:52:39;;;;;;;7.50;5.32;;;;;;;19.74;71.08;98592.22;5027800;28;20025;-79
2022/08/19 07:55:07;;;;;;;7.28;4.50;;;;;;;20.32;70.52;98584.56;5063373;28;20032;-79
2022/08/19 07:57:32;;;;;;;7.38;4.60;;;;;;;20.06;69.88;98573.66;5047712;28;20564;-79
2022/08/19 07:59:58;;;;;;;7.85;4.88;;;;;;;19.77;69.96;98588.88;5063620;28;20028;-80
2022/08/19 08:02:24;;;;;;;6.28;4.47;;;;;;;20.10;70.04;98590.06;5075912;28;20488;-79
2022/08/19 08:10:31;;;;;;;5.15;3.92;;;;;;;19.82;69.04;98586.03;5036562;28;20171;-79
2022/08/19 08:12:57;;;;;;;4.72;3.80;;;;;;;19.60;68.59;98588.81;5047077;28;20305;-79
2022/08/19 08:15:22;;;;;;;6.70;4.13;;;;;;;19.84;69.37;98591.91;5056837;28;20063;-80
2022/08/19 08:17:48;;;;;;;7.30;3.72;;;;;;;19.95;69.06;98585.91;5069519;28;20036;-80
2022/08/19 08:20:14;;;;;;;4.47;4.03;;;;;;;20.30;68.65;98594.13;5064377;28;20135;-80
2022/08/19 08:25:49;;;;;;;5.85;4.20;;;;;;;20.46;67.99;98592.53;5066380;28;20032;-80
2022/08/19 08:28:15;;;;;;;3.80;3.50;;;;;;;20.84;68.28;98586.13;5048876;28;20032;-80
2022/08/19 08:30:42;;;;;;;4.35;3.35;;;;;;;20.99;67.13;98579.38;5048518;28;20418;-79
2022/08/19 08:33:08;;;;;;;3.58;3.22;;;;;;;21.26;65.44;98578.22;5049470;28;20597;-80
2022/08/19 08:35:33;;;;;;;6.18;3.30;;;;;;;20.92;65.86;98557.41;5046772;28;20035;-80
2022/08/19 08:37:59;;;;;;;7.93;4.18;;;;;;;20.94;66.41;98604.00;5054776;28;20024;-79
2022/08/19 08:40:37;;;;;;;4.50;3.88;;;;;;;21.01;67.29;98598.06;5054054;28;20082;-80
2022/08/19 08:43:26;;;;;;;5.22;3.40;;;;;;;21.17;65.44;98591.03;5057408;28;20532;-79
2022/08/19 08:46:33;;;;;;;4.15;3.22;;;;;;;22.11;64.78;98601.50;5060061;28;20056;-80
2022/08/19 08:49:33;;;;;;;5.90;3.97;;;;;;;21.27;65.87;98599.66;5055274;28;20029;-79
2022/08/19 08:52:06;;;;;;;5.10;4.60;;;;;;;20.62;66.56;98590.94;5064865;28;20063;-80
2022/08/19 08:54:42;;;;;;;5.22;4.25;;;;;;;21.72;65.39;98612.72;5059810;28;20036;-80
2022/08/19 08:57:12;;;;;;;;;;;;;;;21.60;65.37;98613.44;5065748;28;20104;-80
2022/08/19 08:59:40;;;;;;;5.43;3.35;;;;;;;20.76;66.15;98599.69;5062600;28;19919;-80
2022/08/19 09:02:07;;;;;;;3.70;3.40;;;;;;;21.22;66.62;98590.88;5060763;28;20017;-80
2022/08/19 09:04:38;;;;;;;4.28;3.53;;;;;;;21.31;65.01;98591.63;5056125;28;20599;-80
2022/08/19 09:07:04;;;;;;;7.25;3.72;;;;;;;21.48;65.29;98613.31;5062160;28;20044;-80
2022/08/19 09:09:50;;;;;;;4.75;3.90;;;;;;;21.83;64.76;98597.69;5060757;28;20044;-79
2022/08/19 09:12:50;;;;;;;4.55;3.58;;;;;;;21.88;63.64;98625.47;5070871;28;20045;-80
2022/08/19 09:15:23;;;;;;;4.97;3.97;;;;;;;21.15;64.61;98609.56;5063080;28;20275;-80
2022/08/19 09:17:48;;;;;;;4.85;3.55;;;;;;;21.62;65.17;98620.09;5052938;28;20035;-80
2022/08/19 09:20:18;;;;;;;4.82;3.70;;;;;;;21.87;64.34;98610.28;5056727;28;20127;-80
2022/08/19 09:22:44;;;;;;;5.97;3.85;;;;;;;21.61;64.03;98604.16;5061998;28;20040;-80
2022/08/19 09:25:13;;;;;;;4.03;3.63;;;;;;;21.74;63.13;98600.41;5061043;28;20043;-80
2022/08/19 09:27:40;;;;;;;5.88;3.15;;;;;;;21.77;63.87;98618.78;5054385;28;20036;-80
2022/08/19 09:30:08;;;;;;;4.65;3.63;;;;;;;22.15;63.81;98611.41;5061070;28;20032;-80
2022/08/19 09:32:38;;;;;;;3.88;3.45;;;;;;;22.73;62.79;98615.16;5056806;28;20044;-80
2022/08/19 09:35:06;;;;;;;3.67;3.10;;;;;;;22.51;63.15;98607.31;5056058;28;20025;-80
2022/08/19 09:37:31;;;;;;;3.35;3.03;;;;;;;22.94;60.82;98584.06;5053777;28;20036;-80
2022/08/19 09:39:57;;;;;;;3.30;2.97;;;;;;;23.07;61.51;98604.75;5055223;28;20017;-80
2022/08/19 09:42:23;;;;;;;3.17;2.88;;;;;;;23.58;60.66;98597.97;5054826;28;20037;-80
2022/08/19 09:44:48;;;;;;;3.95;2.70;;;;;;;23.25;61.57;98608.09;5047383;28;20514;-80
2022/08/19 09:47:13;;;;;;;7.95;3.30;;;;;;;23.57;60.24;98606.47;5059147;28;20043;-80
2022/08/19 09:49:40;;;;;;;4.40;2.80;;;;;;;23.51;60.42;98605.09;5057583;28;20025;-80
2022/08/19 09:52:08;;;;;;;3.03;2.83;;;;;;;24.12;59.06;98612.19;5054658;28;20064;-80
2022/08/19 09:54:34;;;;;;;13.90;3.20;;;;;;;24.13;56.54;98613.00;5051024;28;20048;-80
2022/08/19 09:57:00;;;;;;;6.18;3.25;;;;;;;24.06;57.56;98590.94;5060277;28;20032;-80
2022/08/19 09:59:27;;;;;;;4.53;2.97;;;;;;;23.92;57.26;98590.50;5064468;28;20060;-80
2022/08/19 10:01:52;;;;;;;6.38;2.72;;;;;;;24.66;56.94;98603.66;5042740;28;20025;-80
2022/08/19 10:04:18;;;;;;;3.28;2.50;;;;;;;24.48;56.39;98603.94;5028322;28;20430;-80
2022/08/19 10:06:43;;;;;;;3.15;2.45;;;;;;;24.73;56.22;98582.00;5053455;28;20036;-80
2022/08/19 10:09:10;;;;;;;4.28;3.10;;;;;;;24.65;56.25;98600.13;5050718;28;20035;-80
2022/08/19 10:11:40;;;;;;;6.07;2.75;;;;;;;25.03;54.37;98588.75;5060599;28;20036;-80
2022/08/19 10:14:06;;;;;;;5.68;3.10;;;;;;;24.63;55.35;98593.44;5060982;28;20111;-80
2022/08/19 10:16:32;;;;;;;3.42;3.05;;;;;;;24.42;55.75;98579.94;5058844;28;20035;-80
2022/08/19 10:18:59;;;;;;;3.75;2.60;;;;;;;24.83;54.06;98556.97;5054523;28;20271;-79
2022/08/19 10:21:27;;;;;;;3.05;2.65;;;;;;;25.02;54.08;98579.75;5056591;28;20450;-81
2022/08/19 10:23:56;;;;;;;3.35;3.05;;;;;;;24.06;55.52;98574.59;5056143;28;20481;-79
2022/08/19 10:26:27;;;;;;;2.75;2.50;;;;;;;23.91;55.92;98556.97;5061824;28;20461;-79
2022/08/19 10:28:53;;;;;;;3.08;2.78;;;;;;;24.90;55.93;98552.50;5044089;28;20025;-79
2022/08/19 10:31:23;;;;;;;4.07;2.65;;;;;;;25.24;55.02;98548.31;5046792;28;20041;-79
2022/08/19 10:33:50;;;;;;;5.35;2.75;;;;;;;25.04;54.78;98558.34;5064190;28;20016;-79
2022/08/19 10:36:20;;;;;;;2.33;2.00;;;;;;;25.68;53.76;98560.00;5058794;28;20036;-79
2022/08/19 10:38:49;;;;;;;2.95;2.33;;;;;;;25.57;53.32;98561.66;5056360;28;20055;-79
2022/08/19 10:41:18;;;;;;;2.85;2.53;;;;;;;25.68;52.44;98541.66;5061164;28;20088;-79
2022/08/19 10:43:44;;;;;;;3.03;2.53;;;;;;;25.56;53.63;98563.59;5058928;28;20090;-79
2022/08/19 10:46:13;;;;;;;2.65;2.33;;;;;;;25.55;52.48;98559.31;5047183;28;20480;-80
2022/08/19 10:48:39;;;;;;;3.45;2.20;;;;;;;25.96;52.99;98547.78;5064132;28;20033;-80
2022/08/19 10:53:49;;;;;;;4.57;3.35;;;;;;;25.91;51.67;98560.91;5054587;28;20448;-80
2022/08/19 10:58:59;;;;;;;3.95;2.42;;;;;;;26.59;51.22;98556.59;5059223;28;20075;-80
2022/08/19 11:01:29;;;;;;;2.92;2.63;;;;;;;25.04;50.98;98544.69;5060503;28;20028;-80
2022/08/19 11:03:57;;;;;;;2.40;2.25;;;;;;;24.85;53.39;98546.50;5059202;28;20020;-80
2022/08/19 11:06:24;;;;;;;4.18;2.72;;;;;;;25.44;51.30;98544.56;5058825;28;20052;-79
2022/08/19 11:08:51;;;;;;;3.47;2.15;;;;;;;25.70;53.61;98528.41;5060745;28;20124;-80
2022/08/19 11:11:16;;;;;;;6.38;2.40;;;;;;;25.86;51.81;98515.50;5058389;28;20408;-80
2022/08/19 11:13:45;;;;;;;2.50;2.30;;;;;;;26.49;50.56;98529.78;5064505;28;20029;-80
2022/08/19 11:16:14;;;;;;;2.63;2.22;;;;;;;27.14;49.68;98524.38;5049629;28;20052;-80
2022/08/19 11:18:46;;;;;;;2.80;2.20;;;;;;;27.05;48.87;98507.38;5059646;28;20115;-79
2022/08/19 11:21:19;;;;;;;2.00;1.90;;;;;;;27.29;48.20;98531.69;5060616;28;20071;-79
2022/08/19 11:23:47;;;;;;;2.50;2.25;;;;;;;27.40;48.92;98532.69;5053728;28;20039;-79
2022/08/19 11:26:13;;;;;;;4.35;2.60;;;;;;;26.34;48.90;98529.84;5054841;28;20033;-80
2022/08/19 11:28:39;;;;;;;6.10;2.35;;;;;;;27.43;49.20;98524.50;5061535;28;20055;-79
2022/08/19 11:31:10;;;;;;;4.03;2.22;;;;;;;26.39;48.45;98502.97;5066130;28;20090;-79
2022/08/19 11:33:36;;;;;;;3.35;1.92;;;;;;;26.98;50.04;98526.44;5070670;28;20023;-79
2022/08/19 11:36:02;;;;;;;2.30;2.08;;;;;;;26.59;49.26;98521.00;5036403;28;20492;-79
2022/08/19 11:38:27;;;;;;;4.70;1.88;;;;;;;26.84;50.11;98509.75;5061343;28;20024;-80
2022/08/19 11:40:59;;;;;;;4.32;1.88;;;;;;;27.71;48.12;98515.16;5063310;28;20041;-79
2022/08/19 11:43:26;;;;;;;3.45;1.98;;;;;;;27.94;45.98;98507.66;5061360;28;20032;-79
2022/08/19 11:45:53;;;;;;;2.55;1.75;;;;;;;26.95;48.00;98516.22;5063033;28;20031;-79
2022/08/19 11:48:22;;;;;;;2.03;1.70;;;;;;;27.98;47.68;98508.53;5067872;28;20375;-80
2022/08/19 11:50:49;;;;;;;1.80;1.70;;;;;;;28.25;47.24;98510.06;5049245;28;20032;-79
2022/08/19 11:53:14;;;;;;;3.08;2.05;;;;;;;28.41;46.28;98498.91;5059219;28;20041;-80
2022/08/19 11:55:40;;;;;;;4.45;1.67;;;;;;;28.54;45.81;98494.72;5028164;28;20033;-79